Time;durP1;ratioP1;P1;durP2;ratioP2;P2;SDS_P1;SDS_P2;PMS_P1;PMS_P2;Temp;Humidity;BMP_temperature;BMP_pressure;BME280_temperature;BME280_humidity;BME280_pressure;Samples;Min_cycle;Max_cycle;Signal;HPM_P1;HPM_P2
2023/02/07 00:00:47;;;;;;;23.60;8.75;;;1.10;99.90;;;;;;5027440;28;20120;-81
2023/02/07 00:03:12;;;;;;;23.63;9.10;;;1.10;99.90;;;;;;5016131;28;20176;-80
2023/02/07 00:05:38;;;;;;;22.73;8.98;;;1.00;99.90;;;;;;5028403;28;20044;-78
2023/02/07 00:08:05;;;;;;;26.40;10.40;;;1.10;99.90;;;;;;5031537;28;20040;-80
2023/02/07 00:10:31;;;;;;;40.28;12.60;;;1.00;99.90;;;;;;5015239;28;20037;-81
2023/02/07 00:12:56;;;;;;;24.20;12.00;;;0.90;99.90;;;;;;5016684;28;20042;-80
2023/02/07 00:15:22;;;;;;;35.83;11.57;;;0.90;99.90;;;;;;5032736;28;20112;-81
2023/02/07 00:17:48;;;;;;;33.50;11.82;;;0.90;99.90;;;;;;5029245;28;20040;-79
2023/02/07 00:20:13;;;;;;;32.75;13.50;;;0.90;99.90;;;;;;5032559;28;20426;-81
2023/02/07 00:22:39;;;;;;;30.65;12.30;;;0.90;99.90;;;;;;5029544;28;20073;-80
2023/02/07 00:25:05;;;;;;;35.22;12.93;;;0.90;99.90;;;;;;5029523;28;20652;-80
2023/02/07 00:27:31;;;;;;;40.75;14.75;;;0.80;99.90;;;;;;5012719;28;20484;-81
2023/02/07 00:29:56;;;;;;;34.75;15.48;;;0.80;99.90;;;;;;5033341;28;20136;-78
2023/02/07 00:32:22;;;;;;;38.55;16.17;;;0.70;99.90;;;;;;5028828;28;20060;-81
2023/02/07 00:34:49;;;;;;;83.32;15.23;;;0.60;99.90;;;;;;5011536;28;20041;-76
2023/02/07 00:37:15;;;;;;;49.20;17.17;;;0.60;99.90;;;;;;5009753;28;20033;-80
2023/02/07 00:39:40;;;;;;;63.28;18.85;;;0.60;99.90;;;;;;5015429;28;20558;-78
2023/02/07 00:42:06;;;;;;;64.78;16.08;;;0.50;99.90;;;;;;5012993;28;20049;-81
2023/02/07 00:44:32;;;;;;;54.60;18.80;;;0.40;99.90;;;;;;5029611;28;20041;-79
2023/02/07 00:46:58;;;;;;;36.88;18.60;;;0.40;99.90;;;;;;5024942;28;20056;-80
2023/02/07 00:49:23;;;;;;;41.55;17.35;;;0.30;99.90;;;;;;5026086;28;20030;-80
2023/02/07 00:51:49;;;;;;;27.65;17.35;;;0.30;99.90;;;;;;5026873;28;20049;-79
2023/02/07 00:54:15;;;;;;;60.05;18.88;;;0.30;99.90;;;;;;5044095;28;20037;-81
2023/02/07 00:56:40;;;;;;;22.95;16.35;;;0.20;99.90;;;;;;5026174;28;20049;-81
2023/02/07 00:59:06;;;;;;;30.08;17.42;;;0.20;99.90;;;;;;5013657;28;20059;-80
2023/02/07 01:01:32;;;;;;;33.08;17.83;;;0.30;99.90;;;;;;5010917;28;20073;-80
2023/02/07 01:03:57;;;;;;;42.03;16.60;;;0.20;99.90;;;;;;5025723;28;20502;-80
2023/02/07 01:06:23;;;;;;;25.67;15.35;;;0.20;99.90;;;;;;5025935;28;20539;-78
2023/02/07 01:08:49;;;;;;;39.55;17.42;;;0.20;99.90;;;;;;5028506;28;20088;-80
2023/02/07 01:11:16;;;;;;;32.15;16.73;;;0.30;99.90;;;;;;5013930;28;20041;-80
2023/02/07 01:13:43;;;;;;;32.22;17.90;;;0.40;99.90;;;;;;5010045;28;20037;-77
2023/02/07 01:16:34;;;;;;;36.20;17.60;;;0.40;99.90;;;;;;5012454;28;20572;-81
2023/02/07 01:19:03;;;;;;;40.90;18.38;;;0.40;99.90;;;;;;5011574;28;20037;-76
2023/02/07 01:21:29;;;;;;;35.15;17.63;;;0.40;99.90;;;;;;5040081;28;20029;-77
2023/02/07 01:23:55;;;;;;;38.20;18.85;;;0.50;99.90;;;;;;5027338;28;20034;-80
2023/02/07 01:26:24;;;;;;;33.65;17.88;;;0.50;99.90;;;;;;5043560;28;20493;-81
2023/02/07 01:28:50;;;;;;;33.60;18.52;;;0.50;99.90;;;;;;5016860;28;20068;-81
2023/02/07 01:31:15;;;;;;;43.60;17.90;;;0.50;99.90;;;;;;5018125;28;20080;-79
2023/02/07 01:33:41;;;;;;;44.65;17.13;;;0.50;99.90;;;;;;5031057;28;20550;-80
2023/02/07 01:36:09;;;;;;;37.28;17.40;;;0.50;99.90;;;;;;5029738;28;20033;-81
2023/02/07 01:38:35;;;;;;;25.52;15.80;;;0.50;99.90;;;;;;5026809;28;20073;-77
2023/02/07 01:41:01;;;;;;;34.55;17.33;;;0.50;99.90;;;;;;5034201;28;20153;-81
2023/02/07 01:43:27;;;;;;;27.80;15.73;;;0.50;99.90;;;;;;5029316;28;20037;-78
2023/02/07 01:45:53;;;;;;;42.70;19.90;;;0.40;99.90;;;;;;5025929;28;20610;-78
2023/02/07 01:48:22;;;;;;;60.45;21.17;;;0.30;99.90;;;;;;5033483;28;20046;-81
2023/02/07 01:50:50;;;;;;;47.25;22.38;;;0.20;99.90;;;;;;5033504;28;20038;-80
2023/02/07 01:53:20;;;;;;;43.03;20.20;;;0.20;99.90;;;;;;5027747;28;20037;-80
2023/02/07 01:55:49;;;;;;;39.53;19.13;;;0.30;99.90;;;;;;5010003;28;20109;-79
2023/02/07 01:58:15;;;;;;;43.13;18.65;;;0.10;99.90;;;;;;5011686;28;20053;-81
2023/02/07 02:00:41;;;;;;;34.15;18.25;;;0.00;99.90;;;;;;5012245;28;20033;-81
2023/02/07 02:03:07;;;;;;;45.58;23.80;;;0.00;99.90;;;;;;5010489;28;20044;-81
2023/02/07 02:05:34;;;;;;;41.17;21.85;;;0.20;99.90;;;;;;5009976;28;20044;-79
2023/02/07 02:07:59;;;;;;;46.80;32.50;;;-0.10;99.90;;;;;;5012952;28;20041;-77
2023/02/07 02:11:00;;;;;;;141.35;23.67;;;-0.20;99.90;;;;;;5024169;28;20046;-80
2023/02/07 02:13:29;;;;;;;126.15;20.25;;;-0.20;99.90;;;;;;4996068;28;20045;-79
2023/02/07 02:16:18;;;;;;;454.05;32.95;;;-0.20;99.90;;;;;;5024254;28;20051;-81
2023/02/07 02:19:02;;;;;;;255.65;28.20;;;-0.30;99.90;;;;;;5025297;28;20042;-81
2023/02/07 02:22:07;;;;;;;48.30;21.50;;;-0.40;99.90;;;;;;5026838;28;20044;-80
2023/02/07 02:24:51;;;;;;;27.10;19.33;;;-0.50;99.90;;;;;;5023641;28;20068;-76
2023/02/07 02:27:51;;;;;;;74.53;15.45;;;-0.50;99.90;;;;;;5010356;28;20087;-81
2023/02/07 02:30:40;;;;;;;61.50;13.98;;;-0.50;99.90;;;;;;5007012;28;20033;-80
2023/02/07 02:33:25;;;;;;;98.13;21.50;;;-0.40;99.90;;;;;;5008819;28;20041;-80
2023/02/07 02:36:15;;;;;;;80.32;21.27;;;-0.60;99.90;;;;;;5008294;28;20140;-77
2023/02/07 02:38:55;;;;;;;51.72;15.63;;;-0.60;99.90;;;;;;5008095;28;20124;-77
2023/02/07 02:41:27;;;;;;;153.38;25.40;;;-0.70;99.90;;;;;;5008553;28;20037;-79
2023/02/07 02:44:07;;;;;;;376.73;27.45;;;-0.80;99.90;;;;;;5028408;28;20042;-77
2023/02/07 02:46:37;;;;;;;182.90;27.80;;;-0.90;99.90;;;;;;5025646;28;20107;-79
2023/02/07 02:49:06;;;;;;;49.55;21.13;;;-1.00;99.90;;;;;;5011054;28;20122;-81
2023/02/07 02:51:32;;;;;;;81.80;22.33;;;-0.80;99.90;;;;;;5026985;28;20578;-80
2023/02/07 02:53:58;;;;;;;122.90;18.25;;;-0.90;99.90;;;;;;5025280;28;20033;-79
2023/02/07 02:57:03;;;;;;;43.47;20.30;;;-0.90;99.90;;;;;;5025033;28;20042;-80
2023/02/07 02:59:55;;;;;;;47.15;19.63;;;-0.90;99.90;;;;;;5024686;28;20066;-80
2023/02/07 03:02:33;;;;;;;92.05;27.63;;;-0.90;99.90;;;;;;5037865;28;20096;-81
2023/02/07 03:05:22;;;;;;;247.88;24.17;;;-0.80;99.90;;;;;;5024231;28;20120;-81
2023/02/07 03:07:56;;;;;;;172.25;25.05;;;-0.40;99.90;;;;;;5021462;28;20038;-81
2023/02/07 03:10:33;;;;;;;394.15;28.73;;;-0.90;99.90;;;;;;5024326;28;20038;-81
2023/02/07 03:13:22;;;;;;;398.42;23.88;;;-0.90;99.90;;;;;;5028821;28;20077;-80
2023/02/07 03:15:47;;;;;;;248.77;17.92;;;-0.90;99.90;;;;;;5027177;28;20045;-81
2023/02/07 03:18:36;;;;;;;315.88;21.02;;;-0.90;99.90;;;;;;5009930;28;20037;-81
2023/02/07 03:21:10;;;;;;;441.05;31.65;;;-0.90;99.90;;;;;;5011165;28;20247;-80
2023/02/07 03:23:36;;;;;;;231.90;19.73;;;-0.90;99.90;;;;;;5032682;28;20101;-80
2023/02/07 03:26:04;;;;;;;129.75;17.75;;;-0.80;99.90;;;;;;5015513;28;20045;-81
2023/02/07 03:28:32;;;;;;;210.30;18.35;;;-0.80;99.90;;;;;;5017879;28;20049;-79
2023/02/07 03:31:01;;;;;;;267.77;24.27;;;-0.60;99.90;;;;;;5031825;28;20137;-81
2023/02/07 03:33:27;;;;;;;278.67;23.83;;;-0.70;99.90;;;;;;5030261;28;20538;-81
2023/02/07 03:36:02;;;;;;;230.05;23.30;;;-0.70;99.90;;;;;;5017923;28;20060;-79
2023/02/07 03:38:27;;;;;;;431.25;31.27;;;-0.70;99.90;;;;;;5051464;28;20069;-81
2023/02/07 03:41:00;;;;;;;231.88;22.02;;;-0.60;99.90;;;;;;5022080;28;20040;-81
2023/02/07 03:43:31;;;;;;;212.93;24.60;;;-0.60;99.90;;;;;;5035875;28;20087;-80
2023/02/07 03:45:57;;;;;;;354.77;29.90;;;-0.70;99.90;;;;;;5035270;28;20120;-80
2023/02/07 03:48:23;;;;;;;77.53;18.65;;;-0.60;99.90;;;;;;5036503;28;20123;-81
2023/02/07 03:50:50;;;;;;;80.38;18.95;;;-0.80;99.90;;;;;;5019318;28;20045;-81
2023/02/07 03:53:16;;;;;;;104.90;20.00;;;-0.60;99.90;;;;;;5037161;28;20372;-81
2023/02/07 03:55:42;;;;;;;133.02;25.23;;;-0.70;99.90;;;;;;5013889;28;20119;-81
2023/02/07 03:58:08;;;;;;;38.65;21.33;;;-0.70;99.90;;;;;;5029473;28;20039;-81
2023/02/07 04:00:34;;;;;;;44.13;21.52;;;-0.80;99.90;;;;;;5030278;28;20495;-79
2023/02/07 04:03:00;;;;;;;33.78;16.27;;;-0.80;99.90;;;;;;5030739;28;20037;-80
2023/02/07 04:05:26;;;;;;;64.53;20.00;;;-0.90;99.90;;;;;;5012598;28;20041;-80
2023/02/07 04:07:52;;;;;;;41.17;16.40;;;-1.10;99.90;;;;;;5033596;28;20099;-80
2023/02/07 04:10:18;;;;;;;31.00;17.77;;;-1.20;99.90;;;;;;5030933;28;20165;-78
2023/02/07 04:12:43;;;;;;;41.17;17.40;;;-1.30;99.90;;;;;;5030070;28;20044;-80
2023/02/07 04:15:09;;;;;;;28.75;17.98;;;-1.30;99.90;;;;;;5028747;28;20048;-81
2023/02/07 04:17:35;;;;;;;26.70;15.80;;;-1.30;99.90;;;;;;5032113;28;20099;-79
2023/02/07 04:20:01;;;;;;;25.33;12.60;;;-1.40;99.90;;;;;;5012261;28;20377;-77
2023/02/07 04:22:28;;;;;;;29.27;13.10;;;-1.40;99.90;;;;;;5027061;28;20158;-81
2023/02/07 04:24:54;;;;;;;32.55;13.85;;;-1.40;99.90;;;;;;5024136;28;20045;-80
2023/02/07 04:27:19;;;;;;;71.97;20.63;;;-1.30;99.90;;;;;;5012435;28;20042;-79
2023/02/07 04:29:45;;;;;;;23.90;18.67;;;-1.40;99.90;;;;;;5014631;28;20034;-81
2023/02/07 04:32:11;;;;;;;31.33;17.58;;;-1.30;99.90;;;;;;5016627;28;20037;-80
2023/02/07 04:34:36;;;;;;;38.50;13.32;;;-1.30;99.90;;;;;;5013507;28;20038;-78
2023/02/07 04:37:02;;;;;;;93.43;14.60;;;-1.40;99.90;;;;;;5013133;28;20072;-77
2023/02/07 04:39:27;;;;;;;57.50;13.93;;;-1.20;99.90;;;;;;5018013;28;20561;-79
2023/02/07 04:41:53;;;;;;;34.28;13.65;;;-1.60;99.90;;;;;;5009658;28;20087;-79
2023/02/07 04:44:18;;;;;;;23.27;10.55;;;-1.50;99.90;;;;;;5058752;28;20044;-81
2023/02/07 04:46:44;;;;;;;119.32;15.52;;;-1.60;99.90;;;;;;5028521;28;20042;-81
2023/02/07 04:49:10;;;;;;;165.55;14.93;;;-1.60;99.90;;;;;;5014727;28;20046;-80
2023/02/07 04:51:35;;;;;;;105.22;16.80;;;-1.60;99.90;;;;;;5011008;28;20046;-79
2023/02/07 04:54:01;;;;;;;148.48;12.95;;;-1.60;99.90;;;;;;5028942;28;20037;-77
2023/02/07 04:56:27;;;;;;;20.48;13.32;;;-1.60;99.90;;;;;;5010599;28;20033;-81
2023/02/07 04:58:53;;;;;;;145.60;17.48;;;-1.60;99.90;;;;;;5030306;28;20084;-77
2023/02/07 05:01:18;;;;;;;139.45;21.88;;;-1.50;99.90;;;;;;5029178;28;20041;-80
2023/02/07 05:03:44;;;;;;;158.75;17.67;;;-1.50;99.90;;;;;;5009972;28;20052;-80
2023/02/07 05:06:09;;;;;;;78.93;16.95;;;-1.40;99.90;;;;;;5010575;28;20060;-80
2023/02/07 05:08:36;;;;;;;36.80;16.85;;;-1.40;99.90;;;;;;5029476;28;20045;-81
2023/02/07 05:11:02;;;;;;;24.67;15.65;;;-1.40;99.90;;;;;;5024437;28;20025;-77
2023/02/07 05:13:28;;;;;;;23.83;15.10;;;-1.30;99.90;;;;;;5011117;28;20548;-82
2023/02/07 05:15:53;;;;;;;18.15;12.93;;;-1.10;99.90;;;;;;5025942;28;20128;-79
2023/02/07 05:18:20;;;;;;;21.33;13.60;;;-1.30;99.90;;;;;;5027175;28;20048;-80
2023/02/07 05:20:46;;;;;;;18.55;13.02;;;-1.30;99.90;;;;;;5013994;28;20040;-84
2023/02/07 05:23:11;;;;;;;21.60;13.35;;;-1.30;99.90;;;;;;5025666;28;20037;-84
2023/02/07 05:25:37;;;;;;;18.13;11.77;;;-1.30;99.90;;;;;;5025651;28;20042;-80
2023/02/07 05:28:03;;;;;;;22.98;13.68;;;-1.10;99.90;;;;;;5032604;28;20484;-78
2023/02/07 05:30:28;;;;;;;28.42;15.48;;;-1.30;99.90;;;;;;5028943;28;20110;-81
2023/02/07 05:33:03;;;;;;;31.95;17.45;;;-1.20;99.90;;;;;;5032428;28;20037;-80
2023/02/07 05:35:34;;;;;;;34.13;18.15;;;-1.20;99.90;;;;;;5030455;28;20037;-83
2023/02/07 05:38:00;;;;;;;46.65;22.27;;;-1.20;99.90;;;;;;5020155;28;20047;-82
2023/02/07 05:40:26;;;;;;;43.72;21.75;;;-1.20;99.90;;;;;;5007395;28;20037;-82
2023/02/07 05:42:52;;;;;;;36.25;20.13;;;-1.20;99.90;;;;;;5012586;28;20049;-81
2023/02/07 05:45:18;;;;;;;33.97;19.70;;;-1.20;99.90;;;;;;5028309;28;20151;-81
2023/02/07 05:47:44;;;;;;;40.75;21.33;;;-1.20;99.90;;;;;;5027302;28;20041;-80
2023/02/07 05:50:09;;;;;;;38.97;20.45;;;-1.00;99.90;;;;;;5039541;28;20037;-83
2023/02/07 05:52:35;;;;;;;33.83;17.73;;;-1.20;99.90;;;;;;5011255;28;20182;-83
2023/02/07 05:55:00;;;;;;;35.33;19.10;;;-1.20;99.90;;;;;;5029904;28;20037;-81
2023/02/07 05:57:26;;;;;;;39.38;19.20;;;-0.80;99.90;;;;;;5027225;28;20108;-81
2023/02/07 05:59:52;;;;;;;36.95;19.67;;;-1.20;99.90;;;;;;5011538;28;20055;-84
2023/02/07 06:02:17;;;;;;;34.50;19.15;;;-1.20;99.90;;;;;;5025653;28;20133;-84
2023/02/07 06:04:43;;;;;;;35.95;19.67;;;-1.30;99.90;;;;;;5006375;28;20040;-85
2023/02/07 06:07:09;;;;;;;33.83;18.75;;;-1.10;99.90;;;;;;5013758;28;20068;-86
2023/02/07 06:09:51;;;;;;;38.25;20.48;;;-1.30;99.90;;;;;;5025882;28;20096;-86
2023/02/07 06:12:16;;;;;;;39.65;22.30;;;-1.30;99.90;;;;;;5007234;28;20037;-82
2023/02/07 06:14:42;;;;;;;38.42;22.63;;;-1.30;99.90;;;;;;5027701;28;20034;-83
2023/02/07 06:17:07;;;;;;;38.17;21.63;;;-1.30;99.90;;;;;;5011031;28;20053;-82
2023/02/07 06:19:33;;;;;;;36.08;20.73;;;-1.20;99.90;;;;;;5030152;28;20048;-82
2023/02/07 06:21:58;;;;;;;43.35;22.95;;;-1.20;99.90;;;;;;5052953;28;20037;-84
2023/02/07 06:24:24;;;;;;;33.95;21.27;;;-1.20;99.90;;;;;;5020065;28;20048;-83
2023/02/07 06:26:50;;;;;;;39.65;21.77;;;-1.20;99.90;;;;;;5035032;28;20471;-85
2023/02/07 06:29:15;;;;;;;31.27;19.73;;;-1.30;99.90;;;;;;5030549;28;20037;-86
2023/02/07 06:31:41;;;;;;;34.05;20.15;;;-1.20;99.90;;;;;;5009036;28;20513;-84
2023/02/07 06:34:07;;;;;;;33.63;20.27;;;-1.20;99.90;;;;;;5019404;28;20029;-84
2023/02/07 06:36:33;;;;;;;42.17;21.35;;;-0.90;99.90;;;;;;5028836;28;20049;-85
2023/02/07 06:54:14;;;;;;;33.15;20.45;;;-0.90;99.90;;;;;;5029556;28;20024;-84
2023/02/07 06:56:40;;;;;;;;;;;-1.30;99.90;;;;;;5029229;28;20038;-84
2023/02/07 06:59:06;;;;;;;39.97;21.93;;;-1.30;99.90;;;;;;5013263;28;19928;-81
2023/02/07 07:01:33;;;;;;;42.30;24.38;;;-1.20;99.90;;;;;;5019470;28;20075;-83
2023/02/07 07:03:59;;;;;;;42.40;24.20;;;-1.30;99.90;;;;;;5014876;28;20030;-83
2023/02/07 07:06:25;;;;;;;42.97;24.20;;;-1.20;99.90;;;;;;5001554;28;20038;-83
2023/02/07 07:08:50;;;;;;;41.97;25.83;;;-1.20;99.90;;;;;;5027442;28;20044;-84
2023/02/07 07:11:16;;;;;;;43.13;24.95;;;-1.20;99.90;;;;;;5037273;28;20029;-81
2023/02/07 07:13:42;;;;;;;43.42;25.25;;;-1.20;99.90;;;;;;5026650;28;20053;-83
2023/02/07 07:16:08;;;;;;;36.42;23.48;;;-1.20;99.90;;;;;;4998914;28;20037;-84
2023/02/07 07:18:36;;;;;;;39.03;24.23;;;-1.20;99.90;;;;;;5015016;28;20052;-84
2023/02/07 07:21:02;;;;;;;43.88;26.75;;;-1.10;99.90;;;;;;5035221;28;20056;-84
2023/02/07 07:23:27;;;;;;;47.80;26.52;;;-1.10;99.90;;;;;;5042046;28;20041;-83
2023/02/07 07:25:53;;;;;;;36.92;22.55;;;-1.10;99.90;;;;;;5021328;28;20045;-84
2023/02/07 07:28:18;;;;;;;37.45;22.83;;;-0.40;99.90;;;;;;5035311;28;20049;-83
2023/02/07 07:30:44;;;;;;;33.38;22.73;;;-1.10;99.90;;;;;;5041200;28;20052;-83
2023/02/07 07:33:10;;;;;;;31.70;21.50;;;-1.00;99.90;;;;;;5040352;28;20120;-83
2023/02/07 07:35:35;;;;;;;36.85;22.52;;;-1.00;99.90;;;;;;5042746;28;20029;-83
2023/02/07 07:38:01;;;;;;;36.00;23.00;;;-0.90;99.90;;;;;;5040286;28;20033;-83
2023/02/07 07:40:26;;;;;;;34.45;21.58;;;-0.90;99.90;;;;;;5038165;28;20095;-83
2023/02/07 07:42:52;;;;;;;30.27;21.70;;;-0.90;99.90;;;;;;5035863;28;20041;-84
2023/02/07 07:45:18;;;;;;;28.17;20.65;;;-0.90;99.90;;;;;;5020448;28;20060;-83
2023/02/07 07:47:44;;;;;;;34.83;23.15;;;-0.90;99.90;;;;;;5037270;28;20033;-83
2023/02/07 07:50:10;;;;;;;36.60;21.70;;;-0.80;99.90;;;;;;5038132;28;20480;-83
2023/02/07 07:52:36;;;;;;;29.35;20.80;;;-0.20;99.90;;;;;;5057274;28;20041;-82
2023/02/07 07:55:01;;;;;;;30.15;21.05;;;-0.80;99.90;;;;;;5032343;28;20037;-83
2023/02/07 07:57:27;;;;;;;29.20;19.92;;;-0.80;99.90;;;;;;5034009;28;20120;-83
2023/02/07 07:59:56;;;;;;;29.30;20.20;;;-0.70;99.90;;;;;;5029110;28;20080;-83
2023/02/07 08:02:23;;;;;;;32.40;20.58;;;1.00;99.90;;;;;;5036744;28;20038;-83
2023/02/07 08:04:49;;;;;;;30.52;20.77;;;-0.60;99.90;;;;;;5035802;28;20116;-83
2023/02/07 08:07:14;;;;;;;28.00;19.98;;;-0.10;99.90;;;;;;5038721;28;20037;-83
2023/02/07 08:09:40;;;;;;;33.25;21.08;;;0.90;99.90;;;;;;5020673;28;20053;-83
2023/02/07 08:12:06;;;;;;;34.15;21.80;;;-0.40;99.90;;;;;;5035441;28;20045;-83
2023/02/07 08:14:31;;;;;;;29.90;20.30;;;-0.40;99.90;;;;;;5028157;28;20052;-83
2023/02/07 08:16:57;;;;;;;27.67;19.85;;;-0.30;99.90;;;;;;5040293;28;20037;-83
2023/02/07 08:19:22;;;;;;;30.95;20.08;;;-0.30;99.90;;;;;;5040102;28;20045;-82
2023/02/07 08:21:48;;;;;;;30.48;19.58;;;-0.30;99.90;;;;;;5038677;28;20183;-83
2023/02/07 08:24:14;;;;;;;23.60;19.27;;;0.20;99.90;;;;;;5035101;28;20104;-83
2023/02/07 08:26:39;;;;;;;29.35;19.98;;;-0.20;99.90;;;;;;5032005;28;20100;-83
2023/02/07 08:29:06;;;;;;;28.45;18.55;;;-0.10;99.90;;;;;;5034312;28;20033;-82
2023/02/07 08:31:31;;;;;;;28.40;17.95;;;-0.10;99.90;;;;;;5037415;28;20042;-83
2023/02/07 08:34:00;;;;;;;29.77;19.17;;;-0.10;99.90;;;;;;5039108;28;20083;-83
2023/02/07 08:36:25;;;;;;;25.23;17.40;;;0.00;99.90;;;;;;5039046;28;20117;-83
2023/02/07 08:38:51;;;;;;;27.25;18.48;;;0.00;99.90;;;;;;5037359;28;20088;-83
2023/02/07 08:41:17;;;;;;;24.98;17.83;;;0.00;99.90;;;;;;5025898;28;20029;-83
2023/02/07 08:43:43;;;;;;;24.17;18.13;;;0.10;99.90;;;;;;5031886;28;20056;-83
2023/02/07 08:46:08;;;;;;;28.23;18.30;;;0.10;99.90;;;;;;5039712;28;20740;-83
2023/02/07 08:48:34;;;;;;;26.27;18.42;;;0.20;99.90;;;;;;5036018;28;20037;-83
2023/02/07 08:51:05;;;;;;;24.52;17.02;;;0.20;99.90;;;;;;5034442;28;20037;-84
2023/02/07 08:53:31;;;;;;;23.65;16.30;;;0.30;99.90;;;;;;5033764;28;20044;-83
2023/02/07 08:55:56;;;;;;;24.90;17.48;;;0.30;99.90;;;;;;5040158;28;20041;-83
2023/02/07 08:58:22;;;;;;;21.25;17.08;;;0.30;99.90;;;;;;5040055;28;20041;-82
2023/02/07 09:00:48;;;;;;;22.02;16.00;;;1.50;99.90;;;;;;5013050;28;20124;-84
2023/02/07 09:03:14;;;;;;;22.83;15.95;;;0.40;99.90;;;;;;5039166;28;20076;-84
2023/02/07 09:05:39;;;;;;;26.50;16.45;;;0.50;99.90;;;;;;5034268;28;20044;-83
2023/02/07 09:08:05;;;;;;;19.08;15.00;;;0.40;99.90;;;;;;5027180;28;20041;-83
2023/02/07 09:10:31;;;;;;;22.13;15.32;;;0.60;99.90;;;;;;5027473;28;20537;-84
2023/02/07 09:12:57;;;;;;;19.30;15.07;;;0.60;99.90;;;;;;5041385;28;20060;-83
2023/02/07 12:20:24;;;;;;;9.55;7.50;;;7.20;99.90;;;;;;5024384;28;20566;-84
2023/02/07 12:23:00;;;;;;;8.63;7.03;;;7.20;99.90;;;;;;5026792;28;20496;-86
2023/02/07 12:25:27;;;;;;;;;;;7.10;99.90;;;;;;5006339;28;21550;-82
2023/02/07 12:27:59;;;;;;;9.70;7.28;;;7.20;99.90;;;;;;5024440;28;20383;-84
2023/02/07 12:30:59;;;;;;;9.25;7.22;;;7.00;99.90;;;;;;5038786;28;20155;-87
2023/02/07 12:34:44;;;;;;;8.87;7.87;;;6.90;99.90;;;;;;5023513;28;20048;-87
2023/02/07 12:37:44;;;;;;;11.73;8.05;;;6.90;99.90;;;;;;5006589;28;20713;-85
2023/02/07 12:40:33;;;;;;;13.38;8.70;;;7.00;99.90;;;;;;5023074;28;20048;-83
2023/02/07 12:43:05;;;;;;;9.35;8.35;;;7.10;99.90;;;;;;5022922;28;20496;-85
2023/02/07 12:45:56;;;;;;;14.95;8.25;;;7.00;99.90;;;;;;5021601;28;20041;-86
2023/02/07 12:48:50;;;;;;;8.95;7.32;;;6.90;99.90;;;;;;5037715;28;21272;-86
2023/02/07 13:43:18;;;;;;;10.77;7.72;;;6.10;99.90;;;;;;5018904;28;20112;-87
2023/02/07 14:01:06;;;;;;;10.38;7.57;;;6.10;99.90;;;;;;4996236;28;20053;-86
2023/02/07 14:03:34;;;;;;;11.95;7.18;;;6.00;99.90;;;;;;4998131;28;20431;-86
2023/02/07 14:06:24;;;;;;;10.15;7.50;;;6.00;99.90;;;;;;5007453;28;20044;-86
2023/02/07 14:09:01;;;;;;;12.07;7.55;;;5.90;99.90;;;;;;5020876;28;20060;-85
2023/02/07 14:11:36;;;;;;;11.13;7.72;;;5.90;99.90;;;;;;5004376;28;20037;-86
2023/02/07 14:14:32;;;;;;;12.73;8.18;;;5.80;99.90;;;;;;5026595;28;20116;-84
2023/02/07 14:16:59;;;;;;;11.85;7.93;;;5.90;99.90;;;;;;4998958;28;20045;-85
2023/02/07 14:19:40;;;;;;;13.30;8.68;;;5.80;99.90;;;;;;5003553;28;20048;-86
2023/02/07 14:22:25;;;;;;;13.68;8.52;;;5.90;99.90;;;;;;5006801;28;20091;-86
2023/02/07 14:24:57;;;;;;;9.80;8.10;;;5.80;99.90;;;;;;5003655;28;20077;-86
2023/02/07 14:27:30;;;;;;;12.32;9.15;;;5.80;99.90;;;;;;5022796;28;20116;-84
2023/02/07 14:29:59;;;;;;;11.45;8.07;;;5.70;99.90;;;;;;5002560;28;20076;-86
2023/02/07 14:32:28;;;;;;;10.90;8.63;;;5.70;99.90;;;;;;4999388;28;20739;-86
2023/02/07 14:34:59;;;;;;;16.73;8.63;;;5.70;99.90;;;;;;5019035;28;20049;-86
2023/02/07 14:37:57;;;;;;;11.25;8.00;;;5.70;99.90;;;;;;5017106;28;20053;-85
2023/02/07 14:40:30;;;;;;;11.45;7.93;;;5.70;99.90;;;;;;5018366;28;20158;-86
2023/02/07 14:43:13;;;;;;;11.93;7.80;;;5.70;99.90;;;;;;5000876;28;20049;-85
2023/02/07 14:46:04;;;;;;;11.88;7.68;;;5.60;99.90;;;;;;5017705;28;21801;-83
2023/02/07 14:48:42;;;;;;;14.80;8.10;;;5.70;99.90;;;;;;5020539;28;20083;-85
2023/02/07 14:51:13;;;;;;;15.05;9.15;;;5.60;99.90;;;;;;5003495;28;20060;-85
2023/02/07 14:53:45;;;;;;;12.85;8.25;;;5.60;99.90;;;;;;5002416;28;20040;-82
2023/02/07 14:56:43;;;;;;;11.20;8.00;;;5.50;99.90;;;;;;5034918;28;20124;-86
2023/02/07 14:59:13;;;;;;;11.60;8.27;;;5.40;99.90;;;;;;5015052;28;20050;-82
2023/02/07 15:01:38;;;;;;;15.27;8.00;;;5.30;99.90;;;;;;5021176;28;20526;-83
2023/02/07 15:04:06;;;;;;;10.98;7.75;;;5.20;99.90;;;;;;5021600;28;20041;-85
2023/02/07 15:06:43;;;;;;;15.48;7.88;;;5.20;99.90;;;;;;5006719;28;20049;-86
2023/02/07 15:09:26;;;;;;;13.43;8.38;;;5.30;99.90;;;;;;5021283;28;20037;-82
2023/02/07 15:12:00;;;;;;;13.38;8.35;;;5.20;99.90;;;;;;5036774;28;20048;-86
2023/02/07 15:14:31;;;;;;;12.05;8.05;;;5.30;99.90;;;;;;5019646;28;20037;-86
2023/02/07 15:16:57;;;;;;;10.18;7.35;;;5.20;99.90;;;;;;5020582;28;20048;-85
2023/02/07 15:19:31;;;;;;;10.65;7.95;;;5.20;99.90;;;;;;5024439;28;20037;-86
2023/02/07 15:21:56;;;;;;;10.55;8.35;;;5.30;99.90;;;;;;5001923;28;20489;-85
2023/02/07 15:24:40;;;;;;;13.93;8.45;;;5.20;99.90;;;;;;5023096;28;20052;-85
2023/02/07 15:27:17;;;;;;;12.18;7.95;;;5.10;99.90;;;;;;5022424;28;20038;-86
2023/02/07 15:30:02;;;;;;;10.52;8.02;;;5.10;99.90;;;;;;5004912;28;20038;-86
2023/02/07 15:32:30;;;;;;;13.93;8.82;;;5.10;99.90;;;;;;5021203;28;20041;-86
2023/02/07 15:34:57;;;;;;;13.32;9.48;;;4.90;99.90;;;;;;5009673;28;20049;-86
2023/02/07 15:37:24;;;;;;;10.35;7.93;;;4.90;99.90;;;;;;5028226;28;20048;-86
2023/02/07 15:39:56;;;;;;;11.02;8.10;;;4.90;99.90;;;;;;5011464;28;20041;-86
2023/02/07 15:42:22;;;;;;;10.18;7.95;;;4.80;99.90;;;;;;5023255;28;20067;-86
2023/02/07 15:44:50;;;;;;;10.93;8.77;;;4.80;99.90;;;;;;5003722;28;20037;-85
2023/02/07 15:47:28;;;;;;;11.32;8.23;;;4.80;99.90;;;;;;5038937;28;20404;-86
2023/02/07 15:50:21;;;;;;;11.13;7.97;;;4.70;99.90;;;;;;5003731;28;20103;-85
2023/02/07 15:52:56;;;;;;;12.80;9.00;;;4.70;99.90;;;;;;5025015;28;20686;-86
2023/02/07 15:55:36;;;;;;;15.15;9.27;;;4.60;99.90;;;;;;5008975;28;20057;-86
2023/02/07 15:58:04;;;;;;;13.25;9.68;;;4.50;99.90;;;;;;5024521;28;20045;-84
2023/02/07 16:00:36;;;;;;;12.25;9.13;;;4.50;99.90;;;;;;5022712;28;20049;-86
2023/02/07 16:03:36;;;;;;;12.00;8.80;;;4.40;99.90;;;;;;5011299;28;20034;-82
2023/02/07 16:06:16;;;;;;;11.65;8.93;;;4.20;99.90;;;;;;5030610;28;20144;-85
2023/02/07 16:08:43;;;;;;;13.68;8.35;;;4.10;99.90;;;;;;5025067;28;20559;-84
2023/02/07 16:11:30;;;;;;;12.10;9.00;;;4.10;99.90;;;;;;5036501;28;20033;-86
2023/02/07 16:13:58;;;;;;;11.15;7.72;;;4.00;99.90;;;;;;5010251;28;20060;-85
2023/02/07 16:16:39;;;;;;;13.13;8.52;;;3.90;99.90;;;;;;5003447;28;20041;-85
2023/02/07 16:19:15;;;;;;;10.82;8.73;;;3.70;99.90;;;;;;5009753;28;20488;-85
2023/02/07 16:21:42;;;;;;;13.05;8.10;;;3.60;99.90;;;;;;5006412;28;20037;-84
2023/02/07 16:24:15;;;;;;;9.30;8.25;;;3.50;99.90;;;;;;5010202;28;20934;-86
2023/02/07 16:26:42;;;;;;;15.80;9.57;;;3.40;99.90;;;;;;5022972;28;20049;-85
2023/02/07 16:29:21;;;;;;;14.63;9.27;;;3.40;99.90;;;;;;5024181;28;20396;-86
2023/02/07 16:31:47;;;;;;;16.02;9.70;;;3.40;99.90;;;;;;5007099;28;20476;-86
2023/02/07 16:34:15;;;;;;;14.27;10.00;;;3.30;99.90;;;;;;5024182;28;20162;-85
2023/02/07 16:36:42;;;;;;;17.25;10.30;;;3.20;99.90;;;;;;5025260;28;20041;-84
2023/02/07 16:39:08;;;;;;;10.45;8.05;;;3.20;99.90;;;;;;5004534;28;20037;-86
2023/02/07 16:41:40;;;;;;;11.35;8.98;;;3.20;99.90;;;;;;5009400;28;20132;-86
2023/02/07 16:44:10;;;;;;;10.27;8.15;;;3.10;99.90;;;;;;5006154;28;20488;-86
2023/02/07 16:46:35;;;;;;;13.20;8.85;;;2.90;99.90;;;;;;5022114;28;20073;-86
2023/02/07 16:49:01;;;;;;;12.68;9.93;;;2.80;99.90;;;;;;5022622;28;20069;-84
2023/02/07 16:51:27;;;;;;;9.65;8.63;;;2.80;99.90;;;;;;5021103;28;20053;-86
2023/02/07 16:53:52;;;;;;;10.93;8.70;;;2.80;99.90;;;;;;5010310;28;20049;-86
2023/02/07 16:56:25;;;;;;;8.70;7.80;;;2.70;99.90;;;;;;5021077;28;20033;-86
2023/02/07 17:02:16;;;;;;;16.55;10.50;;;2.50;99.90;;;;;;5007322;28;20049;-86
2023/02/07 17:04:41;;;;;;;13.43;9.95;;;2.50;99.90;;;;;;5022039;28;20046;-82
2023/02/07 17:07:10;;;;;;;12.30;10.25;;;2.60;99.90;;;;;;5007476;28;20571;-86
2023/02/07 17:09:45;;;;;;;13.13;10.20;;;2.60;99.90;;;;;;4985957;28;20615;-87
2023/02/07 17:12:13;;;;;;;12.32;10.60;;;2.50;99.90;;;;;;5023446;28;20489;-87
2023/02/07 17:14:38;;;;;;;14.60;10.30;;;3.10;99.90;;;;;;5023918;28;20179;-86
2023/02/07 17:17:04;;;;;;;16.85;10.68;;;2.50;99.90;;;;;;5018718;28;20498;-85
2023/02/07 17:19:30;;;;;;;12.27;9.88;;;2.40;99.90;;;;;;5005637;28;22353;-86
2023/02/07 17:21:55;;;;;;;14.93;9.57;;;2.40;99.90;;;;;;5018130;28;20041;-84